createdAt,value
2018-09-29T00:00:49.158Z,0.00
2018-09-29T00:01:49.205Z,0.00
2018-09-29T00:02:49.355Z,0.00
2018-09-29T00:03:49.313Z,0.00
2018-09-29T00:04:49.390Z,0.00
2018-09-29T00:05:49.417Z,0.00
2018-09-29T00:06:49.459Z,0.00
2018-09-29T00:07:49.509Z,0.00
2018-09-29T00:08:49.549Z,0.00
2018-09-29T00:09:49.701Z,0.00
2018-09-29T00:10:49.664Z,0.00
2018-09-29T00:11:49.700Z,0.00
2018-09-29T00:12:49.753Z,0.00
2018-09-29T00:13:49.802Z,0.00
2018-09-29T00:14:49.843Z,0.00
2018-09-29T00:15:49.936Z,0.00
2018-09-29T00:16:49.950Z,0.00
2018-09-29T00:17:49.990Z,0.00
2018-09-29T00:18:50.832Z,0.00
2018-09-29T00:19:50.093Z,0.00
2018-09-29T00:20:50.164Z,0.00
2018-09-29T00:21:50.187Z,0.00
2018-09-29T00:22:50.241Z,0.00
2018-09-29T00:23:50.332Z,0.00
2018-09-29T00:24:50.343Z,0.00
2018-09-29T00:25:50.382Z,0.00
2018-09-29T00:26:50.440Z,0.00
2018-09-29T00:27:50.479Z,0.00
2018-09-29T00:28:50.554Z,0.00
2018-09-29T00:29:52.532Z,0.00
2018-09-29T00:30:50.670Z,0.00
2018-09-29T00:31:50.692Z,0.00
2018-09-29T00:32:50.740Z,0.00
2018-09-29T00:33:52.069Z,0.00
2018-09-29T00:34:50.817Z,0.00
2018-09-29T00:35:50.870Z,0.00
2018-09-29T00:36:50.948Z,0.00
2018-09-29T00:37:50.994Z,0.00
2018-09-29T00:38:51.038Z,0.00
2018-09-29T00:39:51.066Z,0.00
2018-09-29T00:40:51.112Z,0.00
2018-09-29T00:41:51.168Z,0.00
2018-09-29T00:42:51.213Z,0.00
2018-09-29T00:43:51.288Z,0.00
2018-09-29T00:44:51.309Z,0.00
2018-09-29T00:45:51.358Z,0.00
2018-09-29T00:46:51.408Z,0.00
2018-09-29T00:47:51.497Z,0.00
2018-09-29T00:48:51.506Z,0.00
2018-09-29T00:49:51.556Z,0.00
2018-09-29T00:50:51.602Z,0.00
2018-09-29T00:51:51.660Z,0.00
2018-09-29T00:52:51.720Z,0.00
2018-09-29T00:53:51.770Z,0.00
2018-09-29T00:54:51.802Z,0.00
2018-09-29T00:55:51.841Z,0.00
2018-09-29T00:56:51.895Z,0.00
2018-09-29T00:57:51.940Z,0.00
2018-09-29T00:58:52.010Z,0.00
2018-09-29T00:59:52.040Z,0.00
2018-09-29T01:00:52.088Z,0.00
2018-09-29T01:01:52.137Z,0.00
2018-09-29T01:02:52.188Z,0.00
2018-09-29T01:03:52.265Z,0.00
2018-09-29T01:04:52.286Z,0.00
2018-09-29T01:05:52.333Z,0.00
2018-09-29T01:06:52.382Z,0.00
2018-09-29T01:07:52.454Z,0.00
2018-09-29T01:08:52.498Z,0.00
2018-09-29T01:09:52.528Z,0.00
2018-09-29T01:10:52.598Z,0.00
2018-09-29T01:11:52.627Z,0.00
2018-09-29T01:12:52.686Z,0.00
2018-09-29T01:13:52.743Z,0.00
2018-09-29T01:14:52.801Z,0.00
2018-09-29T01:15:52.840Z,0.00
2018-09-29T01:16:52.875Z,0.00
2018-09-29T01:17:52.922Z,0.00
2018-09-29T01:18:53.841Z,0.00
2018-09-29T01:19:53.025Z,0.00
2018-09-29T01:20:53.087Z,0.00
2018-09-29T01:21:53.112Z,0.00
2018-09-29T01:22:53.163Z,0.00
2018-09-29T01:23:53.213Z,0.00
2018-09-29T01:24:53.264Z,0.00
2018-09-29T01:25:53.338Z,0.00
2018-09-29T01:26:53.359Z,0.00
2018-09-29T01:27:53.408Z,0.00
2018-09-29T01:28:53.456Z,0.00
2018-09-29T01:29:53.524Z,0.00
2018-09-29T01:30:53.573Z,0.00
2018-09-29T01:31:53.606Z,0.00
2018-09-29T01:32:53.655Z,0.00
2018-09-29T01:33:53.699Z,0.00
2018-09-29T01:34:53.746Z,0.00
2018-09-29T01:35:53.837Z,0.00
2018-09-29T01:36:53.846Z,0.00
2018-09-29T01:37:53.898Z,0.00
2018-09-29T01:38:53.940Z,0.00
2018-09-29T01:39:53.998Z,0.00
2018-09-29T01:40:54.110Z,0.00
2018-09-29T01:41:54.098Z,0.00
2018-09-29T01:42:54.159Z,0.00
2018-09-29T01:43:54.191Z,0.00
2018-09-29T01:44:54.236Z,0.00
2018-09-29T01:45:54.285Z,0.00
2018-09-29T01:46:54.333Z,0.00
2018-09-29T01:47:54.400Z,0.00
2018-09-29T01:48:54.439Z,0.00
2018-09-29T01:49:54.480Z,0.00
2018-09-29T01:50:54.527Z,0.00
2018-09-29T01:51:54.574Z,0.00
2018-09-29T01:52:54.661Z,0.00
2018-09-29T01:53:54.672Z,0.00
2018-09-29T01:54:54.720Z,0.00
2018-09-29T01:55:54.796Z,0.00
2018-09-29T01:56:54.821Z,0.00
2018-09-29T01:57:54.891Z,0.00
2018-09-29T01:58:54.950Z,0.00
2018-09-29T01:59:54.969Z,0.00
2018-09-29T02:00:55.016Z,0.00
2018-09-29T02:01:55.067Z,0.00
2018-09-29T02:02:55.130Z,0.00
2018-09-29T02:03:55.170Z,0.00
2018-09-29T02:04:55.207Z,0.00
2018-09-29T02:05:55.256Z,0.00
2018-09-29T02:06:55.304Z,0.00
2018-09-29T02:07:55.415Z,0.00
2018-09-29T02:08:55.401Z,0.00
2018-09-29T02:09:55.456Z,0.00
2018-09-29T02:10:55.518Z,0.00
2018-09-29T02:11:55.550Z,0.00
2018-09-29T02:12:55.621Z,0.00
2018-09-29T02:13:55.645Z,0.00
2018-09-29T02:14:55.720Z,0.00
2018-09-29T02:15:55.749Z,0.00
2018-09-29T02:16:55.796Z,0.00
2018-09-29T02:17:55.842Z,0.00
2018-09-29T02:18:55.909Z,0.00
2018-09-29T02:19:55.940Z,0.00
2018-09-29T02:20:55.985Z,0.00
2018-09-29T02:21:56.033Z,0.00
2018-09-29T02:22:56.091Z,0.00
2018-09-29T02:23:56.149Z,0.00
2018-09-29T02:24:56.387Z,0.00
2018-09-29T02:25:56.240Z,0.00
2018-09-29T02:26:56.272Z,0.00
2018-09-29T02:27:56.320Z,0.00
2018-09-29T02:28:56.402Z,0.00
2018-09-29T02:29:56.453Z,0.00
2018-09-29T02:30:56.487Z,0.00
2018-09-29T02:31:56.517Z,0.00
2018-09-29T02:32:56.562Z,0.00
2018-09-29T02:33:56.607Z,0.00
2018-09-29T02:34:56.701Z,0.00
2018-09-29T02:35:56.707Z,0.00
2018-09-29T02:36:56.754Z,0.00
2018-09-29T02:37:56.803Z,0.00
2018-09-29T02:38:56.851Z,0.00
2018-09-29T02:39:56.926Z,0.00
2018-09-29T02:40:57.855Z,0.00
2018-09-29T02:41:56.999Z,0.00
2018-09-29T02:42:57.045Z,0.00
2018-09-29T02:43:57.097Z,0.00
2018-09-29T02:44:57.162Z,0.00
2018-09-29T02:45:57.207Z,0.00
2018-09-29T02:46:57.240Z,0.00
2018-09-29T02:47:57.287Z,0.00
2018-09-29T02:48:57.335Z,0.00
2018-09-29T02:49:57.384Z,0.00
2018-09-29T02:50:57.475Z,0.00
2018-09-29T02:51:57.488Z,0.00
2018-09-29T02:52:57.526Z,0.00
2018-09-29T02:53:57.574Z,0.00
2018-09-29T02:54:57.626Z,0.00
2018-09-29T02:55:57.707Z,0.00
2018-09-29T02:56:57.720Z,0.00
2018-09-29T02:57:57.775Z,0.00
2018-09-29T02:58:57.822Z,0.00
2018-09-29T02:59:57.863Z,0.00
2018-09-29T03:00:57.972Z,0.00
2018-09-29T03:01:57.963Z,0.00
2018-09-29T03:02:58.007Z,0.00
2018-09-29T03:03:58.056Z,0.00
2018-09-29T03:04:58.110Z,0.00
2018-09-29T03:05:58.181Z,0.00
2018-09-29T03:06:58.861Z,0.00
2018-09-29T03:07:58.255Z,0.00
2018-09-29T03:08:58.307Z,0.00
2018-09-29T03:09:58.353Z,0.00
2018-09-29T03:10:58.400Z,0.00
2018-09-29T03:11:58.475Z,0.00
2018-09-29T03:12:58.526Z,0.00
2018-09-29T03:13:58.565Z,0.00
2018-09-29T03:14:58.595Z,0.00
2018-09-29T03:15:58.644Z,0.00
2018-09-29T03:16:58.691Z,0.00
2018-09-29T03:17:58.752Z,0.00
2018-09-29T03:18:58.787Z,0.00
2018-09-29T03:19:58.828Z,0.00
2018-09-29T03:20:58.943Z,0.00
2018-09-29T03:21:58.945Z,0.00
2018-09-29T03:22:59.075Z,0.00
2018-09-29T03:23:59.040Z,0.00
2018-09-29T03:24:59.079Z,0.00
2018-09-29T03:25:59.123Z,0.00
2018-09-29T03:26:59.162Z,0.00
2018-09-29T03:27:59.212Z,0.00
2018-09-29T03:28:59.285Z,0.00
2018-09-29T03:29:59.342Z,0.00
2018-09-29T03:30:59.355Z,0.00
2018-09-29T03:31:59.441Z,0.00
2018-09-29T03:32:59.454Z,0.00
2018-09-29T03:33:59.502Z,0.00
2018-09-29T03:34:59.577Z,0.00
2018-09-29T03:35:59.598Z,0.00
2018-09-29T03:36:59.641Z,0.00
2018-09-29T03:37:59.696Z,0.00
2018-09-29T03:38:59.744Z,0.00
2018-09-29T03:39:59.819Z,0.00
2018-09-29T03:40:59.874Z,0.00
2018-09-29T03:41:59.893Z,0.00
2018-09-29T03:42:59.933Z,0.00
2018-09-29T03:43:59.983Z,0.00
2018-09-29T03:45:00.031Z,0.00
2018-09-29T03:46:00.096Z,0.00
2018-09-29T03:47:00.125Z,0.00
2018-09-29T03:48:00.175Z,0.00
2018-09-29T03:49:00.220Z,0.00
2018-09-29T03:50:00.271Z,0.00
2018-09-29T03:51:00.344Z,0.00
2018-09-29T03:52:01.059Z,0.00
2018-09-29T03:53:00.417Z,0.00
2018-09-29T03:54:00.459Z,0.00
2018-09-29T03:55:00.510Z,0.00
2018-09-29T03:56:00.592Z,0.00
2018-09-29T03:57:00.648Z,0.00
2018-09-29T03:58:00.658Z,0.00
2018-09-29T03:59:00.702Z,0.00
2018-09-29T04:00:00.750Z,0.00
2018-09-29T04:01:00.822Z,0.00
2018-09-29T04:02:00.844Z,0.00
2018-09-29T04:03:00.911Z,0.00
2018-09-29T04:04:00.950Z,0.00
2018-09-29T04:05:00.991Z,0.00
2018-09-29T04:06:01.040Z,0.00
2018-09-29T04:07:01.085Z,0.00
2018-09-29T04:08:01.154Z,0.00
2018-09-29T04:09:01.179Z,0.00
2018-09-29T04:10:01.235Z,0.00
2018-09-29T04:11:01.275Z,0.00
2018-09-29T04:12:01.428Z,0.00
2018-09-29T04:13:01.401Z,0.00
2018-09-29T04:14:01.442Z,0.00
2018-09-29T04:15:01.466Z,0.00
2018-09-29T04:16:01.517Z,0.00
2018-09-29T04:17:01.562Z,0.00
2018-09-29T04:18:01.641Z,0.00
2018-09-29T04:19:01.682Z,0.00
2018-09-29T04:20:01.704Z,0.00
2018-09-29T04:21:01.752Z,0.00
2018-09-29T04:22:01.829Z,0.00
2018-09-29T04:23:01.856Z,0.00
2018-09-29T04:24:01.916Z,0.00
2018-09-29T04:25:01.942Z,0.00
2018-09-29T04:26:02.036Z,0.00
2018-09-29T04:27:02.053Z,0.00
2018-09-29T04:28:02.088Z,0.00
2018-09-29T04:29:02.164Z,0.00
2018-09-29T04:30:02.207Z,0.00
2018-09-29T04:31:02.231Z,0.00
2018-09-29T04:32:02.291Z,0.00
2018-09-29T04:33:02.422Z,0.00
2018-09-29T04:34:02.374Z,0.00
2018-09-29T04:35:02.440Z,0.00
2018-09-29T04:36:02.485Z,0.00
2018-09-29T04:37:02.518Z,0.00
2018-09-29T04:38:02.565Z,0.00
2018-09-29T04:39:02.607Z,0.00
2018-09-29T04:40:02.719Z,0.00
2018-09-29T04:41:02.704Z,0.00
2018-09-29T04:42:02.770Z,0.00
2018-09-29T04:43:02.865Z,0.00
2018-09-29T04:44:02.845Z,0.00
2018-09-29T04:45:02.902Z,0.00
2018-09-29T04:46:02.970Z,0.00
2018-09-29T04:47:02.994Z,0.00
2018-09-29T04:48:03.047Z,0.00
2018-09-29T04:49:03.143Z,0.00
2018-09-29T04:50:03.127Z,0.00
2018-09-29T04:51:03.224Z,0.00
2018-09-29T04:52:03.228Z,0.00
2018-09-29T04:53:03.274Z,0.00
2018-09-29T04:54:03.323Z,0.00
2018-09-29T04:55:03.371Z,0.00
2018-09-29T04:56:03.450Z,0.00
2018-09-29T04:57:03.462Z,0.00
2018-09-29T04:58:03.513Z,0.00
2018-09-29T04:59:03.556Z,0.00
2018-09-29T05:00:03.619Z,0.00
2018-09-29T05:01:03.685Z,0.00
2018-09-29T05:02:03.720Z,0.00
2018-09-29T05:03:03.819Z,0.00
2018-09-29T05:04:03.794Z,0.00
2018-09-29T05:05:03.843Z,0.00
2018-09-29T05:06:03.889Z,0.00
2018-09-29T05:07:03.937Z,0.00
2018-09-29T05:08:04.011Z,0.00
2018-09-29T05:09:04.043Z,0.00
2018-09-29T05:10:05.068Z,0.00
2018-09-29T05:11:04.130Z,0.00
2018-09-29T05:12:04.185Z,0.00
2018-09-29T05:13:04.242Z,0.00
2018-09-29T05:14:04.280Z,0.00
2018-09-29T05:15:04.317Z,5.63
2018-09-29T05:16:04.366Z,5.63
2018-09-29T05:17:04.454Z,5.63
2018-09-29T05:18:04.486Z,5.63
2018-09-29T05:19:04.525Z,5.63
2018-09-29T05:20:04.573Z,5.63
2018-09-29T05:21:05.070Z,5.63
2018-09-29T05:22:04.649Z,5.63
2018-09-29T05:23:04.696Z,11.25
2018-09-29T05:24:04.773Z,11.25
2018-09-29T05:25:04.814Z,11.25
2018-09-29T05:26:04.833Z,11.25
2018-09-29T05:27:04.883Z,11.25
2018-09-29T05:28:04.928Z,16.88
2018-09-29T05:29:04.978Z,16.88
2018-09-29T05:30:05.059Z,16.88
2018-09-29T05:31:05.077Z,16.88
2018-09-29T05:32:05.132Z,22.50
2018-09-29T05:33:05.172Z,22.50
2018-09-29T05:34:05.215Z,22.50
2018-09-29T05:35:05.281Z,22.50
2018-09-29T05:36:05.335Z,28.13
2018-09-29T05:37:05.357Z,28.13
2018-09-29T05:38:05.406Z,28.13
2018-09-29T05:39:05.451Z,28.13
2018-09-29T05:40:05.524Z,33.75
2018-09-29T05:41:05.562Z,33.75
2018-09-29T05:42:05.591Z,33.75
2018-09-29T05:43:05.658Z,39.38
2018-09-29T05:44:05.689Z,39.38
2018-09-29T05:45:05.733Z,39.38
2018-09-29T05:46:05.811Z,39.38
2018-09-29T05:47:05.848Z,45.00
2018-09-29T05:48:05.889Z,45.00
2018-09-29T05:49:05.921Z,45.00
2018-09-29T05:50:05.976Z,45.00
2018-09-29T05:51:06.573Z,50.63
2018-09-29T05:52:06.082Z,50.63
2018-09-29T05:53:06.115Z,50.63
2018-09-29T05:54:06.159Z,56.25
2018-09-29T05:55:06.204Z,56.25
2018-09-29T05:56:08.073Z,56.25
2018-09-29T05:57:06.302Z,56.25
2018-09-29T05:58:06.344Z,61.88
2018-09-29T05:59:06.393Z,61.88
2018-09-29T06:00:06.517Z,61.88
2018-09-29T06:01:06.521Z,67.50
2018-09-29T06:02:06.536Z,67.50
2018-09-29T06:03:06.584Z,73.13
2018-09-29T06:04:06.630Z,73.13
2018-09-29T06:05:06.678Z,73.13
2018-09-29T06:06:06.744Z,78.75
2018-09-29T06:07:06.852Z,78.75
2018-09-29T06:08:06.847Z,84.38
2018-09-29T06:09:06.870Z,84.38
2018-09-29T06:10:06.917Z,90.00
2018-09-29T06:11:06.974Z,90.00
2018-09-29T06:12:07.033Z,90.00
2018-09-29T06:13:07.081Z,95.63
2018-09-29T06:14:07.110Z,95.63
2018-09-29T06:15:07.219Z,95.63
2018-09-29T06:16:07.203Z,95.63
2018-09-29T06:17:07.273Z,101.25
2018-09-29T06:18:07.293Z,106.88
2018-09-29T06:19:07.340Z,112.50
2018-09-29T06:20:07.390Z,118.13
2018-09-29T06:21:07.438Z,118.13
2018-09-29T06:22:07.507Z,123.75
2018-09-29T06:23:07.535Z,123.75
2018-09-29T06:24:07.589Z,129.38
2018-09-29T06:25:07.623Z,135.00
2018-09-29T06:26:07.671Z,135.00
2018-09-29T06:27:07.748Z,140.63
2018-09-29T06:28:07.798Z,140.63
2018-09-29T06:29:07.823Z,135.00
2018-09-29T06:30:07.865Z,140.63
2018-09-29T06:31:07.915Z,140.63
2018-09-29T06:32:10.587Z,140.63
2018-09-29T06:33:08.043Z,135.00
2018-09-29T06:34:08.123Z,135.00
2018-09-29T06:35:09.084Z,135.00
2018-09-29T06:36:09.078Z,146.25
2018-09-29T06:37:08.209Z,157.50
2018-09-29T06:38:08.283Z,163.13
2018-09-29T06:39:08.299Z,157.50
2018-09-29T06:40:10.083Z,151.88
2018-09-29T06:41:08.392Z,157.50
2018-09-29T06:42:09.599Z,163.13
2018-09-29T06:43:08.525Z,163.13
2018-09-29T06:44:08.535Z,163.13
2018-09-29T06:45:08.597Z,168.75
2018-09-29T06:46:08.647Z,168.75
2018-09-29T06:47:09.578Z,163.13
2018-09-29T06:48:10.635Z,168.75
2018-09-29T06:49:09.611Z,168.75
2018-09-29T06:50:10.580Z,168.75
2018-09-29T06:51:08.881Z,168.75
2018-09-29T06:52:10.580Z,180.00
2018-09-29T06:53:09.579Z,174.38
2018-09-29T06:54:09.587Z,168.75
2018-09-29T06:55:09.580Z,168.75
2018-09-29T06:56:11.087Z,180.00
2018-09-29T06:57:09.180Z,180.00
2018-09-29T06:58:11.080Z,196.88
2018-09-29T06:59:12.081Z,196.88
2018-09-29T07:00:11.079Z,191.25
2018-09-29T07:01:09.362Z,196.88
2018-09-29T07:02:10.092Z,185.63
2018-09-29T07:03:12.081Z,191.25
2018-09-29T07:04:10.083Z,185.63
2018-09-29T07:05:10.081Z,180.00
2018-09-29T07:06:10.581Z,174.38
2018-09-29T07:07:10.130Z,180.00
2018-09-29T07:08:09.710Z,185.63
2018-09-29T07:09:10.582Z,196.88
2018-09-29T07:10:09.830Z,213.75
2018-09-29T07:11:11.081Z,225.00
2018-09-29T07:12:10.583Z,225.00
2018-09-29T07:13:10.582Z,230.63
2018-09-29T07:14:10.018Z,236.25
2018-09-29T07:15:11.084Z,236.25
2018-09-29T07:16:10.581Z,236.25
2018-09-29T07:17:10.133Z,264.38
2018-09-29T07:18:10.202Z,315.00
2018-09-29T07:19:10.251Z,331.88
2018-09-29T07:20:10.282Z,343.13
2018-09-29T07:21:10.335Z,354.38
2018-09-29T07:22:10.371Z,365.63
2018-09-29T07:23:10.431Z,365.63
2018-09-29T07:24:10.488Z,382.50
2018-09-29T07:25:10.515Z,388.13
2018-09-29T07:26:10.571Z,388.13
2018-09-29T07:27:10.632Z,393.75
2018-09-29T07:28:10.666Z,405.00
2018-09-29T07:29:10.751Z,405.00
2018-09-29T07:30:10.788Z,410.63
2018-09-29T07:31:10.811Z,416.25
2018-09-29T07:32:10.859Z,416.25
2018-09-29T07:33:10.930Z,410.63
2018-09-29T07:34:10.964Z,421.88
2018-09-29T07:35:11.034Z,438.75
2018-09-29T07:36:11.058Z,444.38
2018-09-29T07:37:11.119Z,455.63
2018-09-29T07:38:11.155Z,450.00
2018-09-29T07:39:11.216Z,444.38
2018-09-29T07:40:11.307Z,450.00
2018-09-29T07:41:11.308Z,466.88
2018-09-29T07:42:11.363Z,478.13
2018-09-29T07:43:11.411Z,483.75
2018-09-29T07:44:11.468Z,495.00
2018-09-29T07:45:11.532Z,495.00
2018-09-29T07:46:11.556Z,500.63
2018-09-29T07:47:11.627Z,500.63
2018-09-29T07:48:11.658Z,506.25
2018-09-29T07:49:11.722Z,523.13
2018-09-29T07:50:11.756Z,528.75
2018-09-29T07:51:11.808Z,540.00
2018-09-29T07:52:11.874Z,540.00
2018-09-29T07:53:11.907Z,551.25
2018-09-29T07:54:11.955Z,545.63
2018-09-29T07:55:12.041Z,551.25
2018-09-29T07:56:12.098Z,568.13
2018-09-29T07:57:12.136Z,551.25
2018-09-29T07:58:12.204Z,585.00
2018-09-29T07:59:12.207Z,568.13
2018-09-29T08:00:12.269Z,579.38
2018-09-29T08:01:12.318Z,585.00
2018-09-29T08:02:12.363Z,590.63
2018-09-29T08:03:12.438Z,579.38
2018-09-29T08:04:12.466Z,596.25
2018-09-29T08:05:12.519Z,601.88
2018-09-29T08:06:12.576Z,613.13
2018-09-29T08:07:12.637Z,601.88
2018-09-29T08:08:12.665Z,607.50
2018-09-29T08:09:12.715Z,613.13
2018-09-29T08:10:12.779Z,613.13
2018-09-29T08:11:12.827Z,601.88
2018-09-29T08:12:12.972Z,596.25
2018-09-29T08:13:12.938Z,618.75
2018-09-29T08:14:13.003Z,613.13
2018-09-29T08:15:13.032Z,630.00
2018-09-29T08:16:13.082Z,658.13
2018-09-29T08:17:13.125Z,691.88
2018-09-29T08:18:13.193Z,663.75
2018-09-29T08:19:13.230Z,646.88
2018-09-29T08:20:13.284Z,669.38
2018-09-29T08:21:13.329Z,658.13
2018-09-29T08:22:13.380Z,697.50
2018-09-29T08:23:13.456Z,669.38
2018-09-29T08:24:13.498Z,669.38
2018-09-29T08:25:13.585Z,691.88
2018-09-29T08:26:13.591Z,703.13
2018-09-29T08:27:13.641Z,691.88
2018-09-29T08:28:13.687Z,703.13
2018-09-29T08:29:13.740Z,708.75
2018-09-29T08:30:13.810Z,691.88
2018-09-29T08:31:13.847Z,714.38
2018-09-29T08:32:13.931Z,697.50
2018-09-29T08:33:13.951Z,708.75
2018-09-29T08:34:13.993Z,697.50
2018-09-29T08:35:14.149Z,720.00
2018-09-29T08:36:14.113Z,720.00
2018-09-29T08:37:14.149Z,731.25
2018-09-29T08:38:14.212Z,731.25
2018-09-29T08:39:14.266Z,736.88
2018-09-29T08:40:14.332Z,781.88
2018-09-29T08:41:14.356Z,843.75
2018-09-29T08:42:14.411Z,866.25
2018-09-29T08:43:14.460Z,860.63
2018-09-29T08:44:14.518Z,855.00
2018-09-29T08:45:14.586Z,855.00
2018-09-29T08:46:14.620Z,860.63
2018-09-29T08:47:14.677Z,866.25
2018-09-29T08:48:14.728Z,855.00
2018-09-29T08:49:14.770Z,860.63
2018-09-29T08:50:14.942Z,855.00
2018-09-29T08:51:14.872Z,855.00
2018-09-29T08:52:14.957Z,849.38
2018-09-29T08:53:15.062Z,855.00
2018-09-29T08:54:15.036Z,871.88
2018-09-29T08:55:15.081Z,888.75
2018-09-29T08:56:15.141Z,905.63
2018-09-29T08:57:15.219Z,945.00
2018-09-29T08:58:15.249Z,950.63
2018-09-29T08:59:15.303Z,916.88
2018-09-29T09:00:15.376Z,973.13
2018-09-29T09:01:15.405Z,961.88
2018-09-29T09:02:15.484Z,984.38
2018-09-29T09:03:15.507Z,967.50
2018-09-29T09:04:15.560Z,973.13
2018-09-29T09:05:15.602Z,978.75
2018-09-29T09:06:15.672Z,961.88
2018-09-29T09:07:15.733Z,973.13
2018-09-29T09:08:15.869Z,956.25
2018-09-29T09:09:15.877Z,911.25
2018-09-29T09:10:15.870Z,849.38
2018-09-29T09:11:15.937Z,905.63
2018-09-29T09:12:15.975Z,916.88
2018-09-29T09:13:16.056Z,922.50
2018-09-29T09:14:16.071Z,916.88
2018-09-29T09:15:16.255Z,905.63
2018-09-29T09:16:16.178Z,933.75
2018-09-29T09:17:16.231Z,973.13
2018-09-29T09:18:16.335Z,973.13
2018-09-29T09:19:17.115Z,1001.25
2018-09-29T09:20:16.385Z,984.38
2018-09-29T09:21:20.117Z,990.00
2018-09-29T09:22:16.502Z,961.88
2018-09-29T09:23:16.679Z,973.13
2018-09-29T09:24:16.623Z,978.75
2018-09-29T09:25:16.655Z,956.25
2018-09-29T09:26:16.703Z,990.00
2018-09-29T09:27:16.767Z,984.38
2018-09-29T09:28:16.835Z,961.88
2018-09-29T09:29:16.853Z,950.63
2018-09-29T09:30:16.959Z,1006.88
2018-09-29T09:31:16.963Z,1006.88
2018-09-29T09:32:17.009Z,990.00
2018-09-29T09:33:17.073Z,995.63
2018-09-29T09:34:17.126Z,995.63
2018-09-29T09:35:17.189Z,1018.13
2018-09-29T09:36:17.223Z,984.38
2018-09-29T09:37:17.276Z,1006.88
2018-09-29T09:38:17.329Z,1046.25
2018-09-29T09:39:17.402Z,1051.88
2018-09-29T09:40:17.490Z,1091.25
2018-09-29T09:41:19.123Z,1040.63
2018-09-29T09:42:17.538Z,1035.00
2018-09-29T09:43:17.593Z,1040.63
2018-09-29T09:44:17.650Z,1057.50
2018-09-29T09:45:17.730Z,1096.88
2018-09-29T09:46:17.750Z,1001.25
2018-09-29T09:47:17.820Z,1035.00
2018-09-29T09:48:17.856Z,1091.25
2018-09-29T09:49:17.936Z,1102.50
2018-09-29T09:50:17.982Z,1096.88
2018-09-29T09:51:18.014Z,1085.63
2018-09-29T09:52:18.075Z,1068.75
2018-09-29T09:53:18.117Z,1085.63
2018-09-29T09:54:18.168Z,1102.50
2018-09-29T09:55:18.243Z,1125.00
2018-09-29T09:56:18.283Z,1130.63
2018-09-29T09:57:18.335Z,1141.88
2018-09-29T09:58:18.439Z,1125.00
2018-09-29T09:59:36.659Z,1158.75
2018-09-29T10:00:18.519Z,1164.38
2018-09-29T10:01:18.546Z,1153.13
2018-09-29T10:02:18.612Z,1170.00
2018-09-29T10:03:18.662Z,1164.38
2018-09-29T10:04:18.736Z,1164.38
2018-09-29T10:05:18.760Z,1181.25
2018-09-29T10:06:18.832Z,1164.38
2018-09-29T10:07:19.635Z,1181.25
2018-09-29T10:08:18.910Z,1186.88
2018-09-29T10:09:18.969Z,1136.25
2018-09-29T10:10:23.634Z,1192.50
2018-09-29T10:11:19.635Z,1153.13
2018-09-29T10:12:19.120Z,1192.50
2018-09-29T10:13:19.187Z,1226.25
2018-09-29T10:14:19.249Z,1181.25
2018-09-29T10:15:19.294Z,1215.00
2018-09-29T10:16:19.362Z,1198.13
2018-09-29T10:17:19.425Z,1198.13
2018-09-29T10:18:19.440Z,1186.88
2018-09-29T10:19:19.517Z,1192.50
2018-09-29T10:20:19.562Z,1181.25
2018-09-29T10:21:19.634Z,1192.50
2018-09-29T10:22:20.160Z,1186.88
2018-09-29T10:23:19.727Z,1198.13
2018-09-29T10:24:19.770Z,1181.25
2018-09-29T10:25:19.822Z,1209.38
2018-09-29T10:26:20.644Z,1198.13
2018-09-29T10:27:19.929Z,1158.75
2018-09-29T10:28:19.984Z,1170.00
2018-09-29T10:29:20.950Z,1130.63
2018-09-29T10:30:20.080Z,1141.88
2018-09-29T10:31:20.159Z,1231.88
2018-09-29T10:32:20.194Z,1248.75
2018-09-29T10:33:20.258Z,1248.75
2018-09-29T10:34:20.368Z,1243.13
2018-09-29T10:35:20.358Z,1243.13
2018-09-29T10:36:20.480Z,1231.88
2018-09-29T10:37:20.473Z,1220.63
2018-09-29T10:38:20.539Z,1209.38
2018-09-29T10:39:20.560Z,1181.25
2018-09-29T10:40:20.618Z,1226.25
2018-09-29T10:41:20.670Z,1243.13
2018-09-29T10:42:20.718Z,1226.25
2018-09-29T10:43:20.792Z,1231.88
2018-09-29T10:44:20.835Z,1271.25
2018-09-29T10:45:20.878Z,1271.25
2018-09-29T10:46:20.942Z,1271.25
2018-09-29T10:47:21.004Z,1243.13
2018-09-29T10:48:21.037Z,1237.50
2018-09-29T10:49:21.099Z,1282.50
2018-09-29T10:50:21.146Z,1243.13
2018-09-29T10:51:21.206Z,1265.63
2018-09-29T10:52:21.293Z,1316.25
2018-09-29T10:53:21.304Z,1248.75
2018-09-29T10:54:21.389Z,1265.63
2018-09-29T10:55:21.550Z,1321.88
2018-09-29T10:56:21.481Z,1310.63
2018-09-29T10:57:21.553Z,1248.75
2018-09-29T10:58:21.574Z,1186.88
2018-09-29T10:59:21.643Z,1248.75
2018-09-29T11:00:21.720Z,1260.00
2018-09-29T11:01:21.742Z,1243.13
2018-09-29T11:02:21.835Z,1288.13
2018-09-29T11:03:21.863Z,1321.88
2018-09-29T11:04:21.903Z,1316.25
2018-09-29T11:05:21.954Z,1361.25
2018-09-29T11:06:22.003Z,1395.00
2018-09-29T11:07:22.063Z,1321.88
2018-09-29T11:08:22.132Z,1338.75
2018-09-29T11:09:22.171Z,1350.00
2018-09-29T11:10:22.275Z,1282.50
2018-09-29T11:11:22.276Z,1299.38
2018-09-29T11:12:22.342Z,1321.88
2018-09-29T11:13:22.397Z,1372.50
2018-09-29T11:14:22.482Z,1378.13
2018-09-29T11:15:22.508Z,1378.13
2018-09-29T11:16:22.545Z,1389.38
2018-09-29T11:17:22.599Z,1237.50
2018-09-29T11:18:22.676Z,1293.75
2018-09-29T11:19:22.703Z,1226.25
2018-09-29T11:20:22.787Z,1462.50
2018-09-29T11:21:22.820Z,1485.00
2018-09-29T11:22:22.891Z,1451.25
2018-09-29T11:23:22.917Z,1513.13
2018-09-29T11:24:22.975Z,1490.63
2018-09-29T11:25:23.049Z,1535.63
2018-09-29T11:26:23.089Z,1535.63
2018-09-29T11:27:23.134Z,1518.75
2018-09-29T11:28:23.336Z,1552.50
2018-09-29T11:29:23.273Z,1546.88
2018-09-29T11:30:23.295Z,1496.25
2018-09-29T11:31:23.358Z,1490.63
2018-09-29T11:32:23.414Z,1462.50
2018-09-29T11:33:23.486Z,1406.25
2018-09-29T11:34:23.516Z,1445.63
2018-09-29T11:35:23.596Z,1434.38
2018-09-29T11:36:23.623Z,1355.63
2018-09-29T11:37:23.684Z,1524.38
2018-09-29T11:38:23.733Z,1513.13
2018-09-29T11:39:23.915Z,1485.00
2018-09-29T11:40:23.881Z,1473.75
2018-09-29T11:41:23.897Z,1462.50
2018-09-29T11:42:23.953Z,1445.63
2018-09-29T11:43:24.001Z,1434.38
2018-09-29T11:44:24.095Z,1451.25
2018-09-29T11:45:24.121Z,1445.63
2018-09-29T11:46:24.169Z,1434.38
2018-09-29T11:47:24.218Z,1383.75
2018-09-29T11:48:24.288Z,1350.00
2018-09-29T11:49:24.355Z,1389.38
2018-09-29T11:50:24.390Z,1389.38
2018-09-29T11:51:24.460Z,1406.25
2018-09-29T11:52:24.515Z,1395.00
2018-09-29T11:53:24.546Z,1389.38
2018-09-29T11:54:24.707Z,1411.88
2018-09-29T11:55:24.658Z,1417.50
2018-09-29T11:56:24.716Z,1434.38
2018-09-29T11:57:24.772Z,1485.00
2018-09-29T11:58:24.833Z,1535.63
2018-09-29T11:59:24.925Z,1580.63
2018-09-29T12:00:24.932Z,1563.75
2018-09-29T12:01:24.989Z,1597.50
2018-09-29T12:02:25.042Z,1575.00
2018-09-29T12:03:25.682Z,1569.38
2018-09-29T12:04:25.170Z,1541.25
2018-09-29T12:05:25.210Z,1524.38
2018-09-29T12:06:25.305Z,1535.63
2018-09-29T12:07:25.352Z,1524.38
2018-09-29T12:08:25.373Z,1513.13
2018-09-29T12:09:25.434Z,1440.00
2018-09-29T12:10:25.508Z,1456.88
2018-09-29T12:11:25.536Z,1400.63
2018-09-29T12:12:25.614Z,1378.13
2018-09-29T12:13:25.653Z,1389.38
2018-09-29T12:14:25.743Z,1366.88
2018-09-29T12:15:25.763Z,1400.63
2018-09-29T12:16:25.820Z,1378.13
2018-09-29T12:17:25.870Z,1350.00
2018-09-29T12:18:25.924Z,1406.25
2018-09-29T12:19:26.015Z,1411.88
2018-09-29T12:20:26.167Z,1406.25
2018-09-29T12:21:26.087Z,1395.00
2018-09-29T12:22:26.180Z,1383.75
2018-09-29T12:23:26.199Z,1378.13
2018-09-29T12:24:26.259Z,1350.00
2018-09-29T12:25:26.346Z,1316.25
2018-09-29T12:26:26.374Z,1338.75
2018-09-29T12:27:26.423Z,1378.13
2018-09-29T12:28:26.478Z,1366.88
2018-09-29T12:29:26.589Z,1355.63
2018-09-29T12:30:26.607Z,1372.50
2018-09-29T12:31:26.668Z,1366.88
2018-09-29T12:32:27.510Z,1355.63
2018-09-29T12:33:26.756Z,1338.75
2018-09-29T12:34:27.501Z,1372.50
2018-09-29T12:35:26.886Z,1395.00
2018-09-29T12:36:26.927Z,1344.38
2018-09-29T12:37:27.044Z,1316.25
2018-09-29T12:38:27.040Z,1299.38
2018-09-29T12:39:27.090Z,1265.63
2018-09-29T12:40:27.165Z,1276.88
2018-09-29T12:41:27.200Z,1254.38
2018-09-29T12:42:27.285Z,1215.00
2018-09-29T12:43:27.316Z,1237.50
2018-09-29T12:44:27.412Z,1243.13
2018-09-29T12:45:27.424Z,1237.50